KCEZ/CEZ METAR and TAF weather

Enter ICAO airport designator
Station Type Date Time Source
KCEZ METAR 2019/12/13 13:53 UTC NOAA

KCEZ 131353Z AUTO 07003KT 10SM CLR M03/M04 A3016 RMK AO2 SLP222 T10281039


Station Type Date Time Source
KCEZ Decoded METAR 2019/12/13 13:53 UTC NOAA

CORTEZ MONTEZUMA COUNTY AIRPORT , CO, United States (KCEZ) 37-18N 108-38W 1797M
Dec 13, 2019 - 08:53 AM EST / 2019.12.13 1353 UTC
Wind: from the ENE (070 degrees) at 3 MPH (3 KT):0
Visibility: 10 mile(s):0
Sky conditions: clear
Temperature: 27.0 F (-2.8 C)
Dew Point: 25.0 F (-3.9 C)
Relative Humidity: 92%
Pressure (altimeter): 30.16 in. Hg (1021 hPa)
ob: KCEZ 131353Z AUTO 07003KT 10SM CLR M03/M04 A3016 RMK AO2 SLP222 T10281039
cycle: 14

Station Type Date Time Source
KCEZ TAF UTC NOAA

Error!

Example: see airport list